TOM100T EDDK-EDDK
Flight info
| Callsign | TOM100T |
|---|---|
| Flight time | 0h 48m |
| Altitude | 3000 |
| Route | IFR CCTS |
| Aircraft | B38M/M-V/N |
Departure
| Time | 2026-04-22 18:16 |
|---|---|
| Airport | Cologne Bonn Airport (EDDK) |
Arrival
| Time | 2026-04-22 19:05 |
|---|---|
| Airport | Cologne Bonn Airport (EDDK) |
| Time | Latitude | Longitude | Altitude | Speed | Heading |
|---|---|---|---|---|---|
| 2026-04-22 18:00 | 50.87832 | 7.12460 | 245 ft | 0 kts | 288° |
| 2026-04-22 18:07 | 50.87832 | 7.12459 | 245 ft | 0 kts | 288° |
| 2026-04-22 18:08 | 50.87827 | 7.12480 | 246 ft | 2 kts | 297° |
| 2026-04-22 18:08 | 50.87819 | 7.12500 | 247 ft | 2 kts | 309° |
| 2026-04-22 18:08 | 50.87808 | 7.12517 | 247 ft | 2 kts | 321° |
| 2026-04-22 18:08 | 50.87796 | 7.12530 | 247 ft | 2 kts | 333° |
| 2026-04-22 18:09 | 50.87782 | 7.12538 | 247 ft | 2 kts | 345° |
| 2026-04-22 18:09 | 50.87767 | 7.12542 | 247 ft | 2 kts | 357° |
| 2026-04-22 18:09 | 50.87752 | 7.12541 | 247 ft | 2 kts | 9° |
| 2026-04-22 18:09 | 50.87743 | 7.12538 | 246 ft | 1 kts | 17° |
| 2026-04-22 18:10 | 50.87740 | 7.12536 | 246 ft | 0 kts | 18° |
| 2026-04-22 18:12 | 50.87743 | 7.12537 | 246 ft | 0 kts | 19° |
| 2026-04-22 18:12 | 50.87746 | 7.12538 | 246 ft | 0 kts | 18° |
| 2026-04-22 18:12 | 50.87755 | 7.12543 | 247 ft | 1 kts | 18° |
| 2026-04-22 18:13 | 50.87789 | 7.12560 | 248 ft | 6 kts | 18° |
| 2026-04-22 18:13 | 50.87831 | 7.12581 | 248 ft | 6 kts | 18° |
| 2026-04-22 18:13 | 50.87874 | 7.12603 | 249 ft | 6 kts | 18° |
| 2026-04-22 18:13 | 50.87920 | 7.12630 | 248 ft | 7 kts | 24° |
| 2026-04-22 18:14 | 50.87961 | 7.12674 | 247 ft | 3 kts | 45° |
| 2026-04-22 18:14 | 50.87964 | 7.12678 | 247 ft | 0 kts | 47° |
| 2026-04-22 18:14 | 50.87971 | 7.12691 | 247 ft | 3 kts | 51° |
| 2026-04-22 18:15 | 50.87989 | 7.12739 | 247 ft | 6 kts | 67° |
| 2026-04-22 18:15 | 50.88002 | 7.12810 | 247 ft | 7 kts | 77° |
| 2026-04-22 18:15 | 50.88007 | 7.12904 | 245 ft | 8 kts | 90° |
| 2026-04-22 18:15 | 50.87983 | 7.12997 | 244 ft | 11 kts | 134° |
| 2026-04-22 18:16 | 50.87779 | 7.13296 | 245 ft | 95 kts | 137° |
| 2026-04-22 18:16 | 50.87030 | 7.14356 | 433 ft | 181 kts | 137° |
| 2026-04-22 18:16 | 50.86027 | 7.15655 | 1638 ft | 182 kts | 135° |
| 2026-04-22 18:16 | 50.85132 | 7.16858 | 2034 ft | 191 kts | 132° |
| 2026-04-22 18:17 | 50.84134 | 7.18437 | 2920 ft | 208 kts | 132° |
| 2026-04-22 18:17 | 50.83157 | 7.19872 | 4241 ft | 199 kts | 135° |
| 2026-04-22 18:17 | 50.82144 | 7.21380 | 5181 ft | 206 kts | 126° |
| 2026-04-22 18:17 | 50.81427 | 7.23519 | 5352 ft | 242 kts | 103° |
| 2026-04-22 18:18 | 50.81348 | 7.26215 | 5155 ft | 250 kts | 84° |
| 2026-04-22 18:18 | 50.81510 | 7.29002 | 5063 ft | 256 kts | 83° |
| 2026-04-22 18:18 | 50.81692 | 7.31790 | 5066 ft | 258 kts | 83° |
| 2026-04-22 18:18 | 50.81875 | 7.34604 | 5075 ft | 260 kts | 83° |
| 2026-04-22 18:19 | 50.82098 | 7.37436 | 5118 ft | 259 kts | 77° |
| 2026-04-22 18:19 | 50.82690 | 7.40120 | 4971 ft | 262 kts | 62° |
| 2026-04-22 18:19 | 50.83807 | 7.42361 | 5009 ft | 256 kts | 41° |
| 2026-04-22 18:19 | 50.85314 | 7.43790 | 5046 ft | 253 kts | 23° |
| 2026-04-22 18:20 | 50.87036 | 7.44399 | 4908 ft | 258 kts | 6° |
| 2026-04-22 18:20 | 50.88796 | 7.44209 | 4938 ft | 251 kts | 350° |
| 2026-04-22 18:20 | 50.90404 | 7.43248 | 4945 ft | 246 kts | 333° |
| 2026-04-22 18:20 | 50.91775 | 7.41598 | 4951 ft | 258 kts | 316° |
| 2026-04-22 18:21 | 50.92973 | 7.39442 | 5102 ft | 262 kts | 313° |
| 2026-04-22 18:21 | 50.94150 | 7.37156 | 5025 ft | 271 kts | 310° |
| 2026-04-22 18:21 | 50.95351 | 7.34795 | 4923 ft | 277 kts | 311° |
| 2026-04-22 18:21 | 50.96536 | 7.32475 | 4926 ft | 268 kts | 311° |
| 2026-04-22 18:22 | 50.97709 | 7.30267 | 5060 ft | 254 kts | 313° |
| 2026-04-22 18:22 | 50.98844 | 7.28159 | 5019 ft | 250 kts | 311° |
| 2026-04-22 18:22 | 50.99992 | 7.26048 | 4771 ft | 253 kts | 319° |
| 2026-04-22 18:22 | 51.01443 | 7.24826 | 4920 ft | 235 kts | 354° |
| 2026-04-22 18:23 | 51.03054 | 7.24726 | 5028 ft | 226 kts | 0° |
| 2026-04-22 18:23 | 51.04644 | 7.24627 | 4972 ft | 229 kts | 0° |
| 2026-04-22 18:23 | 51.06215 | 7.24537 | 4985 ft | 228 kts | 358° |
| 2026-04-22 18:24 | 51.09018 | 7.22284 | 4911 ft | 244 kts | 308° |
| 2026-04-22 18:24 | 51.09764 | 7.19815 | 4910 ft | 248 kts | 287° |
| 2026-04-22 18:24 | 51.09911 | 7.14285 | 4371 ft | 255 kts | 261° |
| 2026-04-22 18:25 | 51.09422 | 7.11608 | 4159 ft | 254 kts | 244° |
| 2026-04-22 18:25 | 51.08642 | 7.09097 | 4005 ft | 250 kts | 243° |
| 2026-04-22 18:25 | 51.07879 | 7.06650 | 3929 ft | 249 kts | 243° |
| 2026-04-22 18:26 | 51.06321 | 7.01789 | 3807 ft | 246 kts | 242° |
| 2026-04-22 18:26 | 51.05545 | 6.99353 | 3406 ft | 250 kts | 243° |
| 2026-04-22 18:26 | 51.04819 | 6.96856 | 3036 ft | 249 kts | 242° |
| 2026-04-22 18:26 | 51.03876 | 6.94610 | 2969 ft | 233 kts | 226° |
| 2026-04-22 18:27 | 51.02709 | 6.93107 | 3047 ft | 205 kts | 207° |
| 2026-04-22 18:27 | 51.01454 | 6.92374 | 3037 ft | 187 kts | 185° |
| 2026-04-22 18:27 | 51.00252 | 6.92767 | 2930 ft | 181 kts | 134° |
| 2026-04-22 18:27 | 50.99881 | 6.94560 | 2796 ft | 179 kts | 80° |
| 2026-04-22 18:28 | 51.00273 | 6.96347 | 2985 ft | 162 kts | 69° |
| 2026-04-22 18:28 | 51.00434 | 6.98105 | 2966 ft | 170 kts | 98° |
| 2026-04-22 18:28 | 50.99816 | 6.99725 | 2696 ft | 177 kts | 134° |
| 2026-04-22 18:28 | 50.98789 | 7.00701 | 2451 ft | 171 kts | 155° |
| 2026-04-22 18:29 | 50.97629 | 7.01159 | 2154 ft | 167 kts | 161° |
| 2026-04-22 18:29 | 50.96534 | 7.01542 | 2030 ft | 157 kts | 157° |
| 2026-04-22 18:29 | 50.95620 | 7.02245 | 2005 ft | 136 kts | 144° |
| 2026-04-22 18:29 | 50.94819 | 7.03031 | 1823 ft | 141 kts | 139° |
| 2026-04-22 18:30 | 50.94052 | 7.03953 | 1746 ft | 133 kts | 132° |
| 2026-04-22 18:30 | 50.92670 | 7.06099 | 1534 ft | 147 kts | 128° |
| 2026-04-22 18:30 | 50.91949 | 7.07245 | 1344 ft | 147 kts | 131° |
| 2026-04-22 18:31 | 50.91171 | 7.08342 | 1124 ft | 148 kts | 133° |
| 2026-04-22 18:31 | 50.90425 | 7.09438 | 957 ft | 148 kts | 131° |
| 2026-04-22 18:31 | 50.89660 | 7.10581 | 734 ft | 150 kts | 133° |
| 2026-04-22 18:31 | 50.88874 | 7.11691 | 497 ft | 153 kts | 134° |
| 2026-04-22 18:32 | 50.88046 | 7.12914 | 551 ft | 185 kts | 134° |
| 2026-04-22 18:32 | 50.86977 | 7.14461 | 1245 ft | 244 kts | 134° |
| 2026-04-22 18:32 | 50.85605 | 7.16486 | 1716 ft | 268 kts | 133° |
| 2026-04-22 18:32 | 50.84309 | 7.18401 | 2282 ft | 244 kts | 134° |
| 2026-04-22 18:33 | 50.83108 | 7.20166 | 2745 ft | 226 kts | 129° |
| 2026-04-22 18:33 | 50.82376 | 7.22190 | 3067 ft | 214 kts | 96° |
| 2026-04-22 18:33 | 50.82704 | 7.24405 | 3274 ft | 215 kts | 62° |
| 2026-04-22 18:33 | 50.83427 | 7.26476 | 3618 ft | 208 kts | 63° |
| 2026-04-22 18:34 | 50.84061 | 7.28433 | 4013 ft | 203 kts | 64° |
| 2026-04-22 18:34 | 50.84757 | 7.30394 | 4351 ft | 198 kts | 60° |
| 2026-04-22 18:34 | 50.85426 | 7.32207 | 4876 ft | 190 kts | 63° |
| 2026-04-22 18:34 | 50.86058 | 7.34087 | 5170 ft | 202 kts | 62° |
| 2026-04-22 18:35 | 50.86724 | 7.36088 | 5526 ft | 208 kts | 62° |
| 2026-04-22 18:35 | 50.87414 | 7.38169 | 5988 ft | 221 kts | 62° |
| 2026-04-22 18:35 | 50.88216 | 7.40337 | 6230 ft | 246 kts | 46° |
| 2026-04-22 18:35 | 50.89723 | 7.41770 | 6421 ft | 255 kts | 20° |
| 2026-04-22 18:36 | 50.91513 | 7.42058 | 6299 ft | 265 kts | 358° |
| 2026-04-22 18:36 | 50.93306 | 7.41378 | 6276 ft | 269 kts | 342° |
| 2026-04-22 18:36 | 50.94988 | 7.40030 | 6352 ft | 269 kts | 330° |
| 2026-04-22 18:36 | 50.96471 | 7.38227 | 6457 ft | 267 kts | 323° |
| 2026-04-22 18:37 | 50.97814 | 7.36068 | 5988 ft | 289 kts | 307° |
| 2026-04-22 18:37 | 50.98673 | 7.33197 | 5825 ft | 282 kts | 293° |
| 2026-04-22 18:37 | 50.99136 | 7.31316 | 5646 ft | 279 kts | 292° |
| 2026-04-22 18:37 | 51.00075 | 7.27431 | 5065 ft | 285 kts | 292° |
| 2026-04-22 18:38 | 51.00797 | 7.24531 | 4755 ft | 282 kts | 293° |
| 2026-04-22 18:38 | 51.01537 | 7.21594 | 4278 ft | 286 kts | 293° |
| 2026-04-22 18:38 | 51.02254 | 7.18694 | 4020 ft | 281 kts | 292° |
| 2026-04-22 18:39 | 51.03571 | 7.13230 | 3924 ft | 250 kts | 293° |
| 2026-04-22 18:39 | 51.04184 | 7.10731 | 3938 ft | 235 kts | 291° |
| 2026-04-22 18:39 | 51.04750 | 7.08313 | 3982 ft | 234 kts | 293° |
| 2026-04-22 18:39 | 51.05347 | 7.05960 | 4043 ft | 228 kts | 294° |
| 2026-04-22 18:40 | 51.05955 | 7.03585 | 4019 ft | 231 kts | 294° |
| 2026-04-22 18:40 | 51.06358 | 7.01141 | 4113 ft | 227 kts | 274° |
| 2026-04-22 18:40 | 51.06147 | 6.98667 | 4073 ft | 221 kts | 251° |
| 2026-04-22 18:40 | 51.05526 | 6.96447 | 3987 ft | 218 kts | 243° |
| 2026-04-22 18:41 | 51.04722 | 6.94468 | 3966 ft | 212 kts | 225° |
| 2026-04-22 18:41 | 51.03560 | 6.93117 | 3867 ft | 208 kts | 202° |
| 2026-04-22 18:41 | 51.02148 | 6.92566 | 3491 ft | 215 kts | 172° |
| 2026-04-22 18:41 | 51.00986 | 6.93923 | 3079 ft | 216 kts | 123° |
| 2026-04-22 18:42 | 51.00073 | 6.95686 | 2978 ft | 196 kts | 134° |
| 2026-04-22 18:42 | 50.99033 | 6.96866 | 2971 ft | 184 kts | 143° |
| 2026-04-22 18:42 | 50.98029 | 6.98128 | 3051 ft | 188 kts | 134° |
| 2026-04-22 18:42 | 50.97067 | 6.99627 | 2933 ft | 188 kts | 131° |
| 2026-04-22 18:43 | 50.96182 | 7.01118 | 2629 ft | 185 kts | 130° |
| 2026-04-22 18:43 | 50.95280 | 7.02461 | 2436 ft | 174 kts | 136° |
| 2026-04-22 18:43 | 50.94347 | 7.03641 | 2283 ft | 160 kts | 135° |
| 2026-04-22 18:43 | 50.93553 | 7.04807 | 2034 ft | 158 kts | 133° |
| 2026-04-22 18:44 | 50.92739 | 7.06040 | 1634 ft | 163 kts | 130° |
| 2026-04-22 18:44 | 50.91924 | 7.07314 | 1316 ft | 163 kts | 134° |
| 2026-04-22 18:44 | 50.91071 | 7.08473 | 1028 ft | 158 kts | 135° |
| 2026-04-22 18:44 | 50.90288 | 7.09626 | 828 ft | 152 kts | 133° |
| 2026-04-22 18:45 | 50.89512 | 7.10770 | 666 ft | 149 kts | 134° |
| 2026-04-22 18:45 | 50.88748 | 7.11875 | 486 ft | 150 kts | 133° |
| 2026-04-22 18:45 | 50.87896 | 7.13121 | 704 ft | 190 kts | 135° |
| 2026-04-22 18:45 | 50.86787 | 7.14693 | 1462 ft | 249 kts | 135° |
| 2026-04-22 18:46 | 50.85458 | 7.16650 | 2059 ft | 252 kts | 133° |
| 2026-04-22 18:46 | 50.84290 | 7.18476 | 2623 ft | 230 kts | 132° |
| 2026-04-22 18:46 | 50.83191 | 7.20102 | 3369 ft | 208 kts | 136° |
| 2026-04-22 18:46 | 50.82043 | 7.21439 | 3951 ft | 207 kts | 160° |
| 2026-04-22 18:47 | 50.80551 | 7.21487 | 4165 ft | 229 kts | 196° |
| 2026-04-22 18:47 | 50.79259 | 7.19989 | 4399 ft | 247 kts | 231° |
| 2026-04-22 18:47 | 50.78200 | 7.17731 | 4555 ft | 263 kts | 232° |
| 2026-04-22 18:47 | 50.77078 | 7.15340 | 4847 ft | 275 kts | 233° |
| 2026-04-22 18:48 | 50.75911 | 7.12880 | 4893 ft | 287 kts | 231° |
| 2026-04-22 18:48 | 50.74715 | 7.10407 | 5051 ft | 283 kts | 232° |
| 2026-04-22 18:48 | 50.73512 | 7.07902 | 5085 ft | 283 kts | 233° |
| 2026-04-22 18:48 | 50.72345 | 7.05413 | 5018 ft | 288 kts | 232° |
| 2026-04-22 18:49 | 50.71163 | 7.02886 | 5056 ft | 285 kts | 233° |
| 2026-04-22 18:49 | 50.70092 | 7.00228 | 4979 ft | 288 kts | 246° |
| 2026-04-22 18:49 | 50.69657 | 6.97196 | 4969 ft | 287 kts | 270° |
| 2026-04-22 18:49 | 50.70031 | 6.94179 | 4991 ft | 282 kts | 296° |
| 2026-04-22 18:50 | 50.71189 | 6.91771 | 5012 ft | 276 kts | 322° |
| 2026-04-22 18:50 | 50.72683 | 6.89843 | 5019 ft | 274 kts | 324° |
| 2026-04-22 18:50 | 50.74117 | 6.87902 | 5012 ft | 275 kts | 321° |
| 2026-04-22 18:50 | 50.75549 | 6.85933 | 4977 ft | 264 kts | 323° |
| 2026-04-22 18:51 | 50.76928 | 6.84110 | 4972 ft | 253 kts | 323° |
| 2026-04-22 18:51 | 50.78242 | 6.82385 | 4933 ft | 244 kts | 322° |
| 2026-04-22 18:51 | 50.79499 | 6.80698 | 4964 ft | 233 kts | 323° |
| 2026-04-22 18:51 | 50.80719 | 6.79037 | 4955 ft | 233 kts | 322° |
| 2026-04-22 18:52 | 50.81853 | 6.77191 | 4995 ft | 234 kts | 305° |
| 2026-04-22 18:52 | 50.82419 | 6.74788 | 4980 ft | 239 kts | 279° |
| 2026-04-22 18:52 | 50.82317 | 6.72199 | 5004 ft | 239 kts | 254° |
| 2026-04-22 18:52 | 50.81551 | 6.69856 | 5000 ft | 239 kts | 227° |
| 2026-04-22 18:53 | 50.80225 | 6.68355 | 5004 ft | 235 kts | 197° |
| 2026-04-22 18:53 | 50.78645 | 6.67972 | 4984 ft | 230 kts | 171° |
| 2026-04-22 18:53 | 50.77168 | 6.68800 | 4991 ft | 222 kts | 140° |
| 2026-04-22 18:53 | 50.76203 | 6.70626 | 4991 ft | 216 kts | 112° |
| 2026-04-22 18:54 | 50.75860 | 6.72880 | 5021 ft | 212 kts | 89° |
| 2026-04-22 18:54 | 50.76189 | 6.75128 | 4988 ft | 214 kts | 60° |
| 2026-04-22 18:54 | 50.77286 | 6.76721 | 4968 ft | 217 kts | 26° |
| 2026-04-22 18:54 | 50.78765 | 6.77052 | 4936 ft | 226 kts | 350° |
| 2026-04-22 18:55 | 50.80107 | 6.75733 | 4933 ft | 231 kts | 322° |
| 2026-04-22 18:55 | 50.81317 | 6.74105 | 5048 ft | 225 kts | 326° |
| 2026-04-22 18:55 | 50.82734 | 6.73139 | 5003 ft | 221 kts | 358° |
| 2026-04-22 18:55 | 50.84261 | 6.73166 | 4939 ft | 222 kts | 5° |
| 2026-04-22 18:56 | 50.85777 | 6.73236 | 5050 ft | 217 kts | 4° |
| 2026-04-22 18:56 | 50.87339 | 6.73250 | 4882 ft | 226 kts | 4° |
| 2026-04-22 18:56 | 50.88866 | 6.73237 | 4964 ft | 216 kts | 3° |
| 2026-04-22 18:56 | 50.90364 | 6.73217 | 4899 ft | 211 kts | 4° |
| 2026-04-22 18:57 | 50.91787 | 6.73222 | 4939 ft | 202 kts | 3° |
| 2026-04-22 18:57 | 50.93179 | 6.73190 | 5024 ft | 199 kts | 3° |
| 2026-04-22 18:57 | 50.94584 | 6.73148 | 5020 ft | 198 kts | 2° |
| 2026-04-22 18:57 | 50.95970 | 6.73099 | 5005 ft | 199 kts | 2° |
| 2026-04-22 18:58 | 50.97343 | 6.73134 | 5022 ft | 195 kts | 10° |
| 2026-04-22 18:58 | 50.98588 | 6.73837 | 5010 ft | 189 kts | 37° |
| 2026-04-22 18:58 | 50.99390 | 6.75458 | 4947 ft | 189 kts | 72° |
| 2026-04-22 18:58 | 50.99585 | 6.77533 | 4948 ft | 188 kts | 83° |
| 2026-04-22 18:59 | 50.99691 | 6.79573 | 5025 ft | 184 kts | 86° |
| 2026-04-22 18:59 | 50.99812 | 6.81635 | 4890 ft | 191 kts | 82° |
| 2026-04-22 18:59 | 50.99952 | 6.83756 | 4776 ft | 197 kts | 84° |
| 2026-04-22 18:59 | 51.00066 | 6.85969 | 4567 ft | 205 kts | 85° |
| 2026-04-22 19:00 | 51.00190 | 6.88220 | 4334 ft | 207 kts | 85° |
| 2026-04-22 19:00 | 51.00017 | 6.90541 | 3927 ft | 211 kts | 108° |
| 2026-04-22 19:00 | 50.99437 | 6.92569 | 3723 ft | 198 kts | 112° |
| 2026-04-22 19:00 | 50.98855 | 6.94569 | 3300 ft | 196 kts | 115° |
| 2026-04-22 19:01 | 50.98289 | 6.96421 | 2920 ft | 181 kts | 116° |
| 2026-04-22 19:01 | 50.97641 | 6.97945 | 2942 ft | 160 kts | 128° |
| 2026-04-22 19:01 | 50.96915 | 6.99314 | 2724 ft | 167 kts | 127° |
| 2026-04-22 19:01 | 50.96122 | 7.00670 | 2531 ft | 167 kts | 133° |
| 2026-04-22 19:02 | 50.95309 | 7.01974 | 2381 ft | 161 kts | 130° |
| 2026-04-22 19:02 | 50.94572 | 7.03262 | 2137 ft | 158 kts | 129° |
| 2026-04-22 19:02 | 50.93796 | 7.04508 | 1814 ft | 160 kts | 131° |
| 2026-04-22 19:02 | 50.92995 | 7.05711 | 1530 ft | 158 kts | 131° |
| 2026-04-22 19:03 | 50.92208 | 7.06919 | 1280 ft | 156 kts | 133° |
| 2026-04-22 19:03 | 50.91380 | 7.07998 | 1102 ft | 153 kts | 137° |
| 2026-04-22 19:03 | 50.90591 | 7.09130 | 953 ft | 153 kts | 131° |
| 2026-04-22 19:03 | 50.89823 | 7.10331 | 738 ft | 156 kts | 133° |
| 2026-04-22 19:04 | 50.89011 | 7.11482 | 553 ft | 156 kts | 134° |
| 2026-04-22 19:04 | 50.88209 | 7.12664 | 334 ft | 159 kts | 134° |
| 2026-04-22 19:04 | 50.87417 | 7.13816 | 250 ft | 141 kts | 135° |
| 2026-04-22 19:04 | 50.86772 | 7.14766 | 269 ft | 110 kts | 137° |
| 2026-04-22 19:05 | 50.86310 | 7.15304 | 283 ft | 48 kts | 165° |